createdAt,value
2023-02-11T00:01:28.509Z,26.57
2023-02-11T00:03:58.096Z,26.03
2023-02-11T00:06:30.153Z,26.57
2023-02-11T00:08:58.500Z,26.03
2023-02-11T00:11:30.359Z,28.53
2023-02-11T00:14:00.441Z,28.07
2023-02-11T00:16:29.587Z,26.17
2023-02-11T00:18:58.774Z,25.20
2023-02-11T00:21:29.058Z,26.10
2023-02-11T00:23:59.763Z,24.70
2023-02-11T00:26:31.268Z,24.23
2023-02-11T00:29:00.851Z,23.37
2023-02-11T00:31:30.302Z,24.07
2023-02-11T00:33:58.630Z,24.17
2023-02-11T00:36:30.486Z,22.53
2023-02-11T00:39:00.971Z,23.73
2023-02-11T00:41:29.540Z,24.33
2023-02-11T00:43:58.077Z,24.03
2023-02-11T00:46:26.498Z,24.60
2023-02-11T00:48:57.683Z,22.80
2023-02-11T00:51:28.360Z,24.00
2023-02-11T00:53:56.873Z,23.53
2023-02-11T00:56:25.301Z,22.97
2023-02-11T00:58:54.034Z,22.73
2023-02-11T01:01:22.540Z,22.47
2023-02-11T01:03:50.886Z,23.17
2023-02-11T01:06:19.622Z,24.10
2023-02-11T01:08:49.271Z,23.83
2023-02-11T01:11:20.586Z,22.67
2023-02-11T01:13:49.955Z,24.17
2023-02-11T01:16:18.803Z,24.77
2023-02-11T01:18:47.263Z,24.33
2023-02-11T01:21:16.182Z,24.30
2023-02-11T01:23:44.406Z,22.47
2023-02-11T01:26:14.079Z,24.70
2023-02-11T01:28:42.413Z,23.80
2023-02-11T01:31:10.675Z,23.80
2023-02-11T01:33:39.045Z,23.40
2023-02-11T01:36:08.579Z,23.00
2023-02-11T01:38:37.218Z,23.10
2023-02-11T01:41:08.731Z,22.67
2023-02-11T01:43:41.495Z,23.77
2023-02-11T01:46:31.309Z,23.30
2023-02-11T01:49:06.205Z,20.90
2023-02-11T01:51:39.448Z,24.37
2023-02-11T01:54:27.830Z,23.27
2023-02-11T01:57:17.858Z,24.17
2023-02-11T01:59:57.936Z,23.50
2023-02-11T02:02:34.700Z,22.40
2023-02-11T02:05:10.308Z,23.93
2023-02-11T02:07:43.768Z,22.47
2023-02-11T02:10:20.506Z,25.67
2023-02-11T02:12:48.895Z,23.33
2023-02-11T02:15:28.542Z,23.70
2023-02-11T02:18:08.052Z,23.23
2023-02-11T02:21:14.136Z,22.57
2023-02-11T02:24:35.416Z,24.00
2023-02-11T02:27:41.466Z,22.93
2023-02-11T02:30:50.811Z,22.40
2023-02-11T02:33:39.905Z,22.87
2023-02-11T02:36:16.586Z,23.90
2023-02-11T02:38:54.087Z,23.13
2023-02-11T02:41:29.180Z,23.87
2023-02-11T02:43:57.544Z,22.70
2023-02-11T02:46:28.842Z,22.27
2023-02-11T02:48:59.905Z,23.43
2023-02-11T02:51:54.108Z,25.23
2023-02-11T02:55:13.783Z,21.83
2023-02-11T02:58:01.375Z,23.63
2023-02-11T03:00:40.088Z,23.40
2023-02-11T03:03:24.374Z,23.40
2023-02-11T03:05:59.601Z,23.57
2023-02-11T03:08:34.623Z,25.93
2023-02-11T03:11:03.587Z,25.03
2023-02-11T03:13:35.016Z,23.80
2023-02-11T03:16:10.543Z,25.53
2023-02-11T03:18:43.851Z,24.47
2023-02-11T03:21:15.411Z,25.07
2023-02-11T03:23:49.756Z,24.87
2023-02-11T03:26:25.132Z,22.70
2023-02-11T03:29:03.395Z,24.27
2023-02-11T03:31:40.853Z,23.53
2023-02-11T03:34:15.726Z,23.73
2023-02-11T03:36:50.410Z,23.10
2023-02-11T03:39:23.886Z,23.93
2023-02-11T03:41:54.270Z,24.27
2023-02-11T03:44:24.190Z,25.63
2023-02-11T03:46:55.063Z,25.13
2023-02-11T03:49:26.416Z,25.73
2023-02-11T03:51:57.264Z,25.00
2023-02-11T03:54:31.574Z,24.53
2023-02-11T03:57:02.717Z,25.83
2023-02-11T03:59:31.374Z,24.67
2023-02-11T04:02:00.379Z,28.17
2023-02-11T04:04:28.689Z,25.33
2023-02-11T04:06:58.701Z,25.60
2023-02-11T04:09:26.940Z,27.03
2023-02-11T04:11:55.195Z,24.10
2023-02-11T04:14:23.420Z,25.43
2023-02-11T04:16:51.670Z,24.60
2023-02-11T04:19:19.904Z,25.37
2023-02-11T04:21:48.292Z,25.93
2023-02-11T04:24:17.909Z,25.83
2023-02-11T04:26:46.164Z,24.23
2023-02-11T04:29:14.444Z,24.97
2023-02-11T04:31:42.740Z,23.93
2023-02-11T04:34:10.981Z,24.80
2023-02-11T04:36:39.242Z,24.77
2023-02-11T04:39:07.521Z,25.33
2023-02-11T04:41:37.176Z,24.13
2023-02-11T04:44:06.375Z,25.23
2023-02-11T04:46:34.790Z,24.73
2023-02-11T04:49:03.127Z,23.30
2023-02-11T04:51:31.969Z,24.17
2023-02-11T04:54:00.413Z,24.43
2023-02-11T04:56:28.738Z,25.13
2023-02-11T04:58:58.387Z,25.23
2023-02-11T05:01:26.941Z,25.13
2023-02-11T05:03:55.235Z,25.60
2023-02-11T05:06:23.557Z,24.93
2023-02-11T05:08:52.015Z,25.13
2023-02-11T05:11:22.960Z,24.23
2023-02-11T05:13:51.396Z,27.17
2023-02-11T05:16:21.305Z,25.47
2023-02-11T05:18:52.399Z,24.47
2023-02-11T05:21:21.589Z,24.20
2023-02-11T05:23:50.093Z,25.20
2023-02-11T05:26:19.461Z,23.77
2023-02-11T05:28:47.727Z,25.00
2023-02-11T05:31:16.920Z,25.37
2023-02-11T05:33:46.647Z,25.43
2023-02-11T05:36:16.775Z,24.90
2023-02-11T05:38:45.092Z,26.03
2023-02-11T05:41:14.011Z,26.77
2023-02-11T05:43:42.294Z,25.93
2023-02-11T05:46:10.683Z,24.93
2023-02-11T05:48:39.008Z,23.87
2023-02-11T05:51:08.779Z,24.90
2023-02-11T05:53:37.182Z,25.43
2023-02-11T05:56:06.165Z,25.10
2023-02-11T05:58:34.461Z,25.03
2023-02-11T06:01:02.793Z,26.67
2023-02-11T06:03:31.118Z,24.90
2023-02-11T06:05:59.416Z,25.77
2023-02-11T06:08:29.089Z,24.50
2023-02-11T06:10:57.330Z,26.93
2023-02-11T06:13:25.571Z,27.30
2023-02-11T06:16:04.101Z,25.33
2023-02-11T06:18:33.576Z,26.40
2023-02-11T06:21:02.142Z,27.13
2023-02-11T06:23:31.756Z,28.80
2023-02-11T06:26:03.795Z,26.40
2023-02-11T06:28:32.536Z,27.47
2023-02-11T06:31:06.746Z,27.23
2023-02-11T06:33:35.569Z,27.20
2023-02-11T06:36:05.337Z,27.63
2023-02-11T06:38:34.930Z,27.23
2023-02-11T06:41:03.173Z,28.87
2023-02-11T06:43:31.508Z,26.37
2023-02-11T06:45:59.762Z,28.00
2023-02-11T06:48:28.085Z,27.10
2023-02-11T06:50:56.335Z,26.77
2023-02-11T06:53:25.287Z,26.50
2023-02-11T06:55:54.936Z,25.80
2023-02-11T06:58:23.245Z,27.27
2023-02-11T07:00:52.291Z,26.87
2023-02-11T07:03:20.588Z,36.20
2023-02-11T07:05:49.215Z,39.90
2023-02-11T07:08:17.736Z,35.13
2023-02-11T07:10:45.972Z,35.50
2023-02-11T07:13:15.594Z,36.17
2023-02-11T07:15:43.939Z,35.17
2023-02-11T07:18:14.627Z,30.10
2023-02-11T07:20:43.389Z,33.30
2023-02-11T07:23:11.769Z,38.50
2023-02-11T07:25:39.975Z,36.83
2023-02-11T07:28:08.263Z,34.53
2023-02-11T07:30:37.981Z,31.70
2023-02-11T07:33:06.242Z,28.30
2023-02-11T07:35:34.570Z,29.80
2023-02-11T07:38:02.821Z,31.63
2023-02-11T07:40:31.611Z,29.33
2023-02-11T07:43:01.730Z,29.30
2023-02-11T07:45:30.130Z,30.73
2023-02-11T07:47:59.769Z,31.47
2023-02-11T07:50:28.154Z,33.90
2023-02-11T07:52:56.475Z,32.70
2023-02-11T07:55:24.749Z,33.00
2023-02-11T07:57:53.010Z,31.30
2023-02-11T08:00:21.444Z,32.13
2023-02-11T08:02:49.657Z,32.53
2023-02-11T08:05:19.581Z,32.60
2023-02-11T08:07:47.829Z,33.20
2023-02-11T08:10:16.297Z,33.70
2023-02-11T08:12:45.781Z,32.40
2023-02-11T08:15:14.358Z,30.63
2023-02-11T08:17:42.629Z,28.73
2023-02-11T08:20:11.966Z,27.73
2023-02-11T08:22:41.628Z,29.60
2023-02-11T08:25:09.930Z,29.23
2023-02-11T08:27:38.211Z,28.30
2023-02-11T08:30:07.977Z,27.13
2023-02-11T08:32:36.845Z,27.40
2023-02-11T08:35:07.816Z,26.23
2023-02-11T08:37:36.269Z,26.67
2023-02-11T08:40:07.213Z,27.07
2023-02-11T08:42:35.535Z,27.57
2023-02-11T08:45:05.085Z,26.33
2023-02-11T08:47:33.426Z,27.93
2023-02-11T08:50:01.676Z,24.80
2023-02-11T08:52:29.973Z,26.83
2023-02-11T08:54:58.855Z,26.40
2023-02-11T08:57:28.724Z,28.17
2023-02-11T08:59:57.000Z,30.47
2023-02-11T09:02:25.403Z,33.43
2023-02-11T09:04:53.735Z,33.00
2023-02-11T09:07:22.005Z,31.90
2023-02-11T09:09:50.243Z,32.80
2023-02-11T09:12:18.518Z,30.57
2023-02-11T09:14:48.140Z,33.90
2023-02-11T09:17:16.385Z,32.80
2023-02-11T09:19:44.672Z,30.67
2023-02-11T09:22:12.974Z,30.50
2023-02-11T09:24:41.326Z,31.13
2023-02-11T09:27:09.569Z,31.87
2023-02-11T09:29:37.854Z,30.17
2023-02-11T09:32:09.837Z,31.07
2023-02-11T09:34:38.512Z,29.87
2023-02-11T09:37:06.768Z,29.13
2023-02-11T09:39:35.014Z,31.37
2023-02-11T09:42:38.097Z,30.27
2023-02-11T09:45:15.886Z,31.13
2023-02-11T09:47:51.766Z,30.63
2023-02-11T09:50:30.649Z,33.03
2023-02-11T09:53:03.381Z,33.23
2023-02-11T09:55:37.578Z,31.77
2023-02-11T09:58:12.637Z,30.87
2023-02-11T10:00:46.121Z,31.87
2023-02-11T10:03:50.130Z,32.27
2023-02-11T10:06:37.423Z,31.10
2023-02-11T10:09:34.986Z,30.90
2023-02-11T10:12:21.022Z,28.87
2023-02-11T10:15:09.697Z,28.87
2023-02-11T10:17:46.449Z,28.27
2023-02-11T10:20:27.124Z,28.60
2023-02-11T10:22:58.696Z,26.83
2023-02-11T10:25:29.323Z,28.10
2023-02-11T10:28:01.353Z,26.73
2023-02-11T10:30:34.956Z,27.13
2023-02-11T10:33:08.535Z,27.07
2023-02-11T10:35:39.560Z,24.70
2023-02-11T10:38:09.449Z,23.83
2023-02-11T10:40:37.822Z,23.27
2023-02-11T10:43:11.840Z,22.57
2023-02-11T10:45:44.440Z,23.17
2023-02-11T10:48:44.833Z,22.53
2023-02-11T10:51:21.934Z,21.77
2023-02-11T10:53:52.264Z,21.47
2023-02-11T10:56:28.519Z,21.97
2023-02-11T10:59:02.024Z,23.33
2023-02-11T11:01:42.472Z,23.90
2023-02-11T11:04:36.616Z,23.80
2023-02-11T11:07:17.766Z,23.77
2023-02-11T11:09:51.870Z,22.10
2023-02-11T11:12:48.983Z,23.87
2023-02-11T11:15:23.727Z,21.57
2023-02-11T11:18:20.998Z,23.27
2023-02-11T11:21:00.023Z,22.80
2023-02-11T11:23:31.251Z,24.13
2023-02-11T11:26:04.950Z,23.10
2023-02-11T11:28:38.973Z,25.67
2023-02-11T11:31:15.357Z,24.17
2023-02-11T11:33:45.548Z,24.50
2023-02-11T11:36:18.201Z,23.70
2023-02-11T11:39:03.262Z,23.43
2023-02-11T11:41:34.478Z,22.93
2023-02-11T11:44:16.192Z,22.60
2023-02-11T11:46:46.984Z,22.40
2023-02-11T11:49:26.931Z,21.77
2023-02-11T11:52:11.076Z,22.00
2023-02-11T11:54:41.968Z,23.17
2023-02-11T11:57:16.317Z,21.83
2023-02-11T11:59:44.715Z,33.40
2023-02-11T12:02:37.026Z,28.03
2023-02-11T12:05:13.113Z,26.10
2023-02-11T12:07:59.882Z,25.43
2023-02-11T12:10:56.639Z,19.97
2023-02-11T12:13:39.463Z,20.50
2023-02-11T12:16:20.746Z,19.13
2023-02-11T12:19:24.537Z,18.90
2023-02-11T12:22:04.311Z,18.20
2023-02-11T12:24:50.080Z,17.83
2023-02-11T12:27:35.069Z,17.57
2023-02-11T12:30:19.964Z,16.60
2023-02-11T12:32:55.013Z,16.73
2023-02-11T12:35:38.453Z,17.20
2023-02-11T12:38:35.248Z,16.80
2023-02-11T12:41:43.035Z,16.13
2023-02-11T12:44:21.900Z,17.63
2023-02-11T12:46:57.607Z,17.17
2023-02-11T12:49:38.964Z,17.60
2023-02-11T12:52:26.364Z,17.20
2023-02-11T12:54:59.792Z,18.53
2023-02-11T12:57:30.753Z,17.20
2023-02-11T13:00:06.618Z,17.43
2023-02-11T13:02:46.842Z,17.83
2023-02-11T13:05:26.474Z,17.97
2023-02-11T13:08:01.340Z,17.70
2023-02-11T13:10:35.320Z,17.33
2023-02-11T13:13:19.199Z,17.30
2023-02-11T13:15:53.370Z,15.60
2023-02-11T13:18:36.971Z,17.17
2023-02-11T13:21:33.507Z,17.07
2023-02-11T13:24:17.224Z,17.13
2023-02-11T13:26:55.629Z,18.87
2023-02-11T13:29:37.315Z,19.87
2023-02-11T13:32:13.232Z,20.07
2023-02-11T13:34:59.904Z,23.33
2023-02-11T13:37:33.273Z,22.97
2023-02-11T13:40:04.521Z,27.37
2023-02-11T13:42:35.593Z,27.00
2023-02-11T13:45:04.213Z,28.43
2023-02-11T13:47:36.719Z,31.80
2023-02-11T13:50:10.594Z,24.30
2023-02-11T13:52:42.712Z,17.60
2023-02-11T13:55:22.858Z,18.70
2023-02-11T13:58:19.656Z,17.87
2023-02-11T14:00:51.505Z,17.67
2023-02-11T14:03:49.836Z,17.30
2023-02-11T14:06:45.400Z,16.73
2023-02-11T14:09:40.379Z,16.93
2023-02-11T14:12:35.683Z,16.17
2023-02-11T14:15:21.830Z,16.50
2023-02-11T14:17:50.106Z,18.37
2023-02-11T14:20:44.680Z,17.43
2023-02-11T14:23:27.976Z,17.03
2023-02-11T14:26:34.862Z,17.00
2023-02-11T14:29:14.117Z,16.23
2023-02-11T14:31:50.607Z,15.20
2023-02-11T14:34:47.428Z,15.30
2023-02-11T14:37:32.564Z,15.50
2023-02-11T14:40:16.308Z,15.00
2023-02-11T14:42:44.886Z,15.53
2023-02-11T14:45:21.585Z,14.67
2023-02-11T14:47:56.291Z,15.37
2023-02-11T14:50:28.583Z,16.40
2023-02-11T14:53:02.330Z,14.40
2023-02-11T14:55:37.079Z,15.13
2023-02-11T14:58:14.630Z,15.00
2023-02-11T15:00:52.362Z,13.70
2023-02-11T15:03:34.350Z,13.93
2023-02-11T15:06:07.444Z,15.03
2023-02-11T15:08:43.937Z,14.53
2023-02-11T15:11:15.513Z,14.23
2023-02-11T15:13:48.128Z,20.53
2023-02-11T15:16:20.732Z,24.50
2023-02-11T15:18:53.212Z,27.00
2023-02-11T15:21:24.303Z,26.47
2023-02-11T15:24:07.046Z,29.10
2023-02-11T15:26:35.596Z,29.43
2023-02-11T15:29:04.932Z,29.97
2023-02-11T15:31:35.093Z,28.43
2023-02-11T15:34:09.701Z,28.23
2023-02-11T15:36:39.778Z,27.67
2023-02-11T15:39:21.337Z,27.30
2023-02-11T15:41:49.572Z,27.47
2023-02-11T15:44:32.961Z,27.10
2023-02-11T15:47:01.552Z,25.40
2023-02-11T15:49:29.868Z,26.00
2023-02-11T15:51:59.065Z,26.93
2023-02-11T15:54:32.085Z,24.67
2023-02-11T15:57:06.401Z,26.80
2023-02-11T15:59:39.184Z,26.43
2023-02-11T16:02:14.504Z,27.43
2023-02-11T16:04:51.446Z,28.10
2023-02-11T16:07:42.866Z,28.53
2023-02-11T16:10:29.067Z,28.03
2023-02-11T16:13:17.714Z,30.23
2023-02-11T16:15:51.144Z,29.97
2023-02-11T16:18:39.865Z,31.73
2023-02-11T16:21:16.865Z,31.97
2023-02-11T16:23:52.805Z,32.23
2023-02-11T16:26:31.616Z,33.50
2023-02-11T16:29:14.302Z,32.50
2023-02-11T16:31:45.150Z,30.03
2023-02-11T16:34:17.082Z,29.63
2023-02-11T16:36:47.138Z,31.40
2023-02-11T16:39:16.774Z,29.53
2023-02-11T16:41:46.378Z,30.30
2023-02-11T16:44:14.906Z,29.73
2023-02-11T16:46:43.339Z,29.50
2023-02-11T16:49:17.463Z,27.03
2023-02-11T16:51:48.950Z,28.90
2023-02-11T16:54:19.251Z,27.10
2023-02-11T16:56:49.105Z,22.60
2023-02-11T16:59:17.526Z,22.23
2023-02-11T17:01:47.153Z,21.53
2023-02-11T17:04:20.443Z,21.47
2023-02-11T17:06:49.217Z,19.33
2023-02-11T17:09:21.657Z,17.77
2023-02-11T17:11:52.064Z,23.50
2023-02-11T17:14:21.248Z,20.10
2023-02-11T17:16:50.064Z,24.83
2023-02-11T17:19:21.836Z,19.57
2023-02-11T17:21:52.042Z,18.33
2023-02-11T17:24:21.356Z,18.80
2023-02-11T17:26:51.822Z,19.27
2023-02-11T17:29:23.865Z,20.07
2023-02-11T17:31:53.337Z,17.47
2023-02-11T17:34:22.908Z,19.13
2023-02-11T17:36:51.837Z,19.90
2023-02-11T17:39:21.190Z,19.87
2023-02-11T17:41:50.989Z,18.90
2023-02-11T17:44:19.455Z,17.70
2023-02-11T17:46:47.769Z,17.37
2023-02-11T17:49:16.367Z,17.37
2023-02-11T17:51:44.972Z,18.33
2023-02-11T17:54:15.336Z,19.57
2023-02-11T17:56:43.983Z,20.73
2023-02-11T17:59:15.090Z,20.37
2023-02-11T18:01:44.524Z,18.77
2023-02-11T18:04:17.237Z,18.57
2023-02-11T18:06:46.436Z,20.77
2023-02-11T18:09:14.725Z,20.53
2023-02-11T18:11:43.340Z,19.67
2023-02-11T18:14:13.526Z,20.17
2023-02-11T18:16:44.788Z,18.80
2023-02-11T18:19:13.967Z,16.27
2023-02-11T18:21:42.513Z,17.27
2023-02-11T18:24:11.575Z,16.30
2023-02-11T18:26:39.792Z,17.00
2023-02-11T18:29:08.095Z,17.30
2023-02-11T18:31:37.864Z,16.70
2023-02-11T18:34:08.479Z,16.53
2023-02-11T18:36:37.583Z,18.40
2023-02-11T18:39:06.313Z,17.43
2023-02-11T18:41:34.750Z,16.97
2023-02-11T18:44:04.576Z,16.43
2023-02-11T18:46:32.907Z,15.60
2023-02-11T18:49:02.611Z,15.37
2023-02-11T18:51:32.394Z,14.93
2023-02-11T18:54:01.313Z,17.00
2023-02-11T18:56:29.693Z,14.70
2023-02-11T18:59:01.241Z,15.73
2023-02-11T19:01:31.867Z,15.00
2023-02-11T19:04:04.454Z,14.57
2023-02-11T19:06:35.406Z,15.33
2023-02-11T19:09:07.396Z,15.20
2023-02-11T19:11:50.030Z,16.10
2023-02-11T19:14:22.332Z,15.07
2023-02-11T19:16:52.939Z,15.43
2023-02-11T19:19:23.552Z,14.50
2023-02-11T19:21:51.874Z,15.03
2023-02-11T19:24:20.821Z,15.17
2023-02-11T19:26:51.685Z,15.53
2023-02-11T19:29:20.394Z,16.53
2023-02-11T19:31:48.848Z,16.13
2023-02-11T19:34:20.496Z,16.07
2023-02-11T19:36:50.988Z,15.23
2023-02-11T19:39:19.558Z,13.93
2023-02-11T19:41:47.838Z,15.50
2023-02-11T19:44:16.722Z,14.87
2023-02-11T19:46:46.047Z,15.43
2023-02-11T19:49:17.593Z,16.00
2023-02-11T19:51:45.932Z,16.53
2023-02-11T19:54:15.520Z,16.13
2023-02-11T19:56:44.818Z,16.80
2023-02-11T19:59:13.250Z,16.30
2023-02-11T20:01:42.379Z,16.50
2023-02-11T20:04:10.727Z,16.80
2023-02-11T20:06:38.954Z,16.63
2023-02-11T20:09:12.387Z,16.87
2023-02-11T20:11:42.999Z,15.87
2023-02-11T20:14:14.842Z,15.97
2023-02-11T20:16:49.236Z,16.47
2023-02-11T20:19:19.515Z,16.53
2023-02-11T20:21:50.234Z,16.23
2023-02-11T20:24:20.025Z,15.90
2023-02-11T20:26:51.682Z,15.63
2023-02-11T20:29:20.584Z,16.23
2023-02-11T20:31:50.619Z,16.93
2023-02-11T20:34:19.380Z,16.57
2023-02-11T20:36:52.112Z,16.13
2023-02-11T20:39:22.737Z,16.83
2023-02-11T20:41:53.847Z,16.70
2023-02-11T20:44:22.887Z,17.40
2023-02-11T20:46:53.813Z,28.60
2023-02-11T20:49:25.348Z,25.23
2023-02-11T20:51:54.451Z,21.37
2023-02-11T20:54:24.195Z,18.70
2023-02-11T20:56:56.761Z,19.00
2023-02-11T20:59:25.676Z,18.17
2023-02-11T21:01:56.728Z,18.47
2023-02-11T21:04:27.313Z,16.80
2023-02-11T21:06:58.217Z,17.73
2023-02-11T21:09:30.287Z,24.10
2023-02-11T21:12:00.215Z,20.50
2023-02-11T21:14:28.981Z,19.07
2023-02-11T21:16:57.632Z,17.73
2023-02-11T21:19:25.957Z,18.17
2023-02-11T21:21:55.137Z,18.40
2023-02-11T21:24:23.734Z,18.67
2023-02-11T21:26:52.012Z,18.17
2023-02-11T21:29:21.652Z,18.57
2023-02-11T21:31:51.335Z,19.50
2023-02-11T21:34:20.810Z,20.40
2023-02-11T21:36:51.127Z,18.43
2023-02-11T21:39:20.217Z,19.10
2023-02-11T21:41:48.513Z,19.57
2023-02-11T21:44:16.912Z,19.50
2023-02-11T21:46:46.601Z,18.07
2023-02-11T21:49:15.001Z,18.13
2023-02-11T21:51:43.607Z,17.83
2023-02-11T21:54:12.774Z,17.40
2023-02-11T21:56:41.055Z,17.93
2023-02-11T21:59:11.794Z,17.73
2023-02-11T22:01:40.064Z,17.13
2023-02-11T22:04:10.835Z,16.23
2023-02-11T22:06:39.804Z,16.40
2023-02-11T22:09:10.819Z,16.87
2023-02-11T22:11:40.147Z,16.47
2023-02-11T22:14:08.764Z,17.70
2023-02-11T22:16:37.322Z,18.07
2023-02-11T22:19:07.528Z,42.30
2023-02-11T22:21:37.251Z,25.37
2023-02-11T22:24:06.378Z,20.07
2023-02-11T22:26:34.695Z,18.10
2023-02-11T22:29:02.995Z,17.20
2023-02-11T22:31:34.666Z,17.70
2023-02-11T22:34:04.858Z,19.03
2023-02-11T22:36:36.822Z,20.07
2023-02-11T22:39:08.189Z,16.87
2023-02-11T22:41:38.277Z,17.83
2023-02-11T22:44:06.615Z,18.67
2023-02-11T22:46:35.803Z,19.23
2023-02-11T22:49:04.600Z,20.93
2023-02-11T22:51:33.671Z,22.73
2023-02-11T22:54:05.858Z,21.20
2023-02-11T22:56:35.829Z,18.70
2023-02-11T22:59:07.249Z,18.23
2023-02-11T23:01:36.052Z,18.33
2023-02-11T23:04:07.029Z,21.93
2023-02-11T23:06:35.790Z,22.10
2023-02-11T23:09:06.888Z,20.30
2023-02-11T23:11:35.999Z,18.40
2023-02-11T23:14:05.192Z,18.90
2023-02-11T23:16:35.301Z,19.57
2023-02-11T23:19:07.624Z,21.47
2023-02-11T23:21:39.502Z,19.63
2023-02-11T23:24:13.193Z,20.10
2023-02-11T23:26:42.817Z,21.10
2023-02-11T23:29:12.391Z,19.63
2023-02-11T23:31:45.980Z,19.63
2023-02-11T23:34:17.187Z,20.63
2023-02-11T23:36:45.535Z,20.03
2023-02-11T23:39:17.166Z,32.63
2023-02-11T23:41:46.643Z,20.87
2023-02-11T23:44:15.012Z,21.33
2023-02-11T23:46:43.289Z,19.23
2023-02-11T23:49:11.652Z,18.90
2023-02-11T23:51:39.966Z,18.17
2023-02-11T23:54:08.193Z,20.27
2023-02-11T23:56:39.018Z,16.77
2023-02-11T23:59:07.329Z,17.67
